createdAt,value
2022-08-05T00:02:23.177Z,4.70
2022-08-05T00:04:55.516Z,4.90
2022-08-05T00:07:59.058Z,4.70
2022-08-05T00:10:12.341Z,5.20
2022-08-05T00:12:56.072Z,4.50
2022-08-05T00:15:55.069Z,4.50
2022-08-05T00:18:21.398Z,4.30
2022-08-05T00:20:50.998Z,4.00
2022-08-05T00:23:44.702Z,4.80
2022-08-05T00:26:07.735Z,4.70
2022-08-05T00:28:36.614Z,4.60
2022-08-05T00:31:05.669Z,4.30
2022-08-05T00:34:54.549Z,4.40
2022-08-05T00:37:13.139Z,4.80
2022-08-05T00:39:13.782Z,4.80
2022-08-05T00:41:55.162Z,4.20
2022-08-05T00:44:30.392Z,4.30
2022-08-05T00:47:02.171Z,4.50
2022-08-05T00:49:44.665Z,4.80
2022-08-05T00:52:28.277Z,4.40
2022-08-05T00:54:56.625Z,4.40
2022-08-05T00:57:25.451Z,4.80
2022-08-05T00:59:59.410Z,4.40
2022-08-05T01:02:26.913Z,4.40
2022-08-05T01:04:54.431Z,4.90
2022-08-05T01:07:22.022Z,4.70
2022-08-05T01:09:59.629Z,4.20
2022-08-05T01:12:29.714Z,5.10
2022-08-05T01:15:35.828Z,4.40
2022-08-05T01:18:03.671Z,4.50
2022-08-05T01:20:44.810Z,4.20
2022-08-05T01:23:44.634Z,4.30
2022-08-05T01:26:32.955Z,4.30
2022-08-05T01:29:06.288Z,4.70
2022-08-05T01:31:44.581Z,4.40
2022-08-05T01:34:18.165Z,4.60
2022-08-05T01:37:09.746Z,4.90
2022-08-05T01:39:59.064Z,4.70
2022-08-05T01:42:29.583Z,4.70
2022-08-05T01:45:02.049Z,4.70
2022-08-05T01:47:39.612Z,5.20
2022-08-05T01:50:29.650Z,4.30
2022-08-05T01:53:02.826Z,4.50
2022-08-05T01:55:36.200Z,4.50
2022-08-05T01:58:15.870Z,4.70
2022-08-05T02:00:49.354Z,4.80
2022-08-05T02:03:31.727Z,4.30
2022-08-05T02:06:24.075Z,4.30
2022-08-05T02:08:58.467Z,4.20
2022-08-05T02:11:37.538Z,4.20
2022-08-05T02:14:17.523Z,4.10
2022-08-05T02:16:54.634Z,4.20
2022-08-05T02:19:27.959Z,4.60
2022-08-05T02:22:09.919Z,3.90
2022-08-05T02:25:00.080Z,4.20
2022-08-05T02:27:58.467Z,4.90
2022-08-05T02:30:19.414Z,4.10
2022-08-05T02:32:50.611Z,4.20
2022-08-05T02:35:28.099Z,4.20
2022-08-05T02:38:02.828Z,4.10
2022-08-05T02:40:32.259Z,4.10
2022-08-05T02:43:01.086Z,4.80
2022-08-05T02:45:52.764Z,4.50
2022-08-05T02:48:19.167Z,4.60
2022-08-05T02:50:51.433Z,4.30
2022-08-05T02:53:21.960Z,4.00
2022-08-05T02:55:59.584Z,4.60
2022-08-05T02:58:30.295Z,4.60
2022-08-05T03:01:01.955Z,4.50
2022-08-05T03:03:33.861Z,4.40
2022-08-05T03:06:55.218Z,4.60
2022-08-05T03:08:53.400Z,4.80
2022-08-05T03:11:57.284Z,5.00
2022-08-05T03:14:13.300Z,4.70
2022-08-05T03:16:41.327Z,4.10
2022-08-05T03:19:17.270Z,4.60
2022-08-05T03:21:56.726Z,4.40
2022-08-05T03:24:30.485Z,4.80
2022-08-05T03:27:00.178Z,5.20
2022-08-05T03:29:45.855Z,4.60
2022-08-05T03:32:16.834Z,4.30
2022-08-05T03:34:51.110Z,4.80
2022-08-05T03:37:21.142Z,4.50
2022-08-05T03:40:01.436Z,4.60
2022-08-05T03:42:32.829Z,4.80
2022-08-05T03:45:22.057Z,5.20
2022-08-05T03:47:51.343Z,5.20
2022-08-05T03:50:20.381Z,5.00
2022-08-05T03:54:58.744Z,4.30
2022-08-05T03:56:10.514Z,4.80
2022-08-05T03:58:43.093Z,4.80
2022-08-05T04:01:15.034Z,4.60
2022-08-05T04:04:09.048Z,4.30
2022-08-05T04:06:35.289Z,4.70
2022-08-05T04:09:05.888Z,5.00
2022-08-05T04:11:47.713Z,4.90
2022-08-05T04:14:30.115Z,4.70
2022-08-05T04:17:03.101Z,4.90
2022-08-05T04:19:30.827Z,4.60
2022-08-05T04:22:09.469Z,5.30
2022-08-05T04:24:43.998Z,5.40
2022-08-05T04:27:15.412Z,5.00
2022-08-05T04:29:43.065Z,5.20
2022-08-05T04:32:10.576Z,6.60
2022-08-05T04:34:43.097Z,15.50
2022-08-05T04:37:11.207Z,36.20
2022-08-05T04:39:39.241Z,7.30
2022-08-05T04:42:08.068Z,7.60
2022-08-05T04:44:36.877Z,5.80
2022-08-05T04:47:08.989Z,16.20
2022-08-05T04:50:02.450Z,7.80
2022-08-05T04:52:28.395Z,6.40
2022-08-05T04:54:57.348Z,7.50
2022-08-05T04:57:29.219Z,15.60
2022-08-05T05:00:06.456Z,7.40
2022-08-05T05:02:41.923Z,5.50
2022-08-05T05:05:26.250Z,5.10
2022-08-05T05:08:02.634Z,5.00
2022-08-05T05:10:33.295Z,4.60
2022-08-05T05:13:04.262Z,5.30
2022-08-05T05:15:57.197Z,4.60
2022-08-05T05:18:28.783Z,4.70
2022-08-05T05:21:03.757Z,4.50
2022-08-05T05:23:39.154Z,4.50
2022-08-05T05:26:28.370Z,5.20
2022-08-05T05:29:00.490Z,3.90
2022-08-05T05:31:35.976Z,4.30
2022-08-05T05:34:01.945Z,4.10
2022-08-05T05:36:31.803Z,4.20
2022-08-05T05:38:59.637Z,4.10
2022-08-05T05:41:40.761Z,4.20
2022-08-05T05:44:35.545Z,4.10
2022-08-05T05:46:58.275Z,4.00
2022-08-05T05:49:26.229Z,4.20
2022-08-05T05:51:55.188Z,4.10
2022-08-05T05:54:22.758Z,4.60
2022-08-05T05:57:13.601Z,3.90
2022-08-05T05:59:48.790Z,4.50
2022-08-05T06:02:17.122Z,4.20
2022-08-05T06:05:01.353Z,4.20
2022-08-05T06:07:41.819Z,4.00
2022-08-05T06:10:10.742Z,4.40
2022-08-05T06:12:42.357Z,4.50
2022-08-05T06:15:16.497Z,3.70
2022-08-05T06:17:53.111Z,4.70
2022-08-05T06:20:21.712Z,4.20
2022-08-05T06:22:49.414Z,4.10
2022-08-05T06:25:25.068Z,4.20
2022-08-05T06:28:11.224Z,3.70
2022-08-05T06:30:48.837Z,3.60
2022-08-05T06:33:19.464Z,3.70
2022-08-05T06:36:07.803Z,3.60
2022-08-05T06:38:37.709Z,4.20
2022-08-05T06:41:08.188Z,4.00
2022-08-05T06:43:57.634Z,3.70
2022-08-05T06:46:29.914Z,4.00
2022-08-05T06:49:00.850Z,4.10
2022-08-05T06:51:30.780Z,3.90
2022-08-05T06:54:01.837Z,4.60
2022-08-05T06:56:33.849Z,3.70
2022-08-05T06:59:09.401Z,3.90
2022-08-05T07:01:40.789Z,3.40
2022-08-05T07:04:10.787Z,3.90
2022-08-05T07:06:41.752Z,3.50
2022-08-05T07:09:10.013Z,3.70
2022-08-05T07:11:39.947Z,4.30
2022-08-05T07:14:29.464Z,3.80
2022-08-05T07:17:59.876Z,4.10
2022-08-05T07:20:32.508Z,3.60
2022-08-05T07:22:38.460Z,3.90
2022-08-05T07:25:23.908Z,4.50
2022-08-05T07:28:03.879Z,4.10
2022-08-05T07:30:40.125Z,4.20
2022-08-05T07:33:15.911Z,3.70
2022-08-05T07:36:02.194Z,3.30
2022-08-05T07:38:43.231Z,3.80
2022-08-05T07:42:12.865Z,3.60
2022-08-05T07:44:14.513Z,3.90
2022-08-05T07:46:50.609Z,4.30
2022-08-05T07:49:20.126Z,4.30
2022-08-05T07:51:52.954Z,4.20
2022-08-05T07:54:30.943Z,4.00
2022-08-05T07:57:13.950Z,3.80
2022-08-05T07:59:49.186Z,3.90
2022-08-05T08:02:17.920Z,3.40
2022-08-05T08:04:48.492Z,4.20
2022-08-05T08:07:22.673Z,4.10
2022-08-05T08:09:54.949Z,3.40
2022-08-05T08:12:33.507Z,4.20
2022-08-05T08:15:13.990Z,4.60
2022-08-05T08:17:49.934Z,3.60
2022-08-05T08:20:59.778Z,3.90
2022-08-05T08:24:01.379Z,3.90
2022-08-05T08:26:02.833Z,3.70
2022-08-05T08:28:36.530Z,3.00
2022-08-05T08:31:10.075Z,4.50
2022-08-05T08:33:44.678Z,3.60
2022-08-05T08:36:37.449Z,3.70
2022-08-05T08:39:00.705Z,4.00
2022-08-05T08:41:52.612Z,3.50
2022-08-05T08:45:19.601Z,4.50
2022-08-05T08:47:46.912Z,3.50
2022-08-05T08:50:30.987Z,3.90
2022-08-05T08:53:02.003Z,3.40
2022-08-05T08:56:02.913Z,3.50
2022-08-05T08:58:36.901Z,3.60
2022-08-05T09:01:08.673Z,3.40
2022-08-05T09:03:54.421Z,3.50
2022-08-05T09:06:29.685Z,3.40
2022-08-05T09:09:00.550Z,3.50
2022-08-05T09:11:53.125Z,3.90
2022-08-05T09:14:58.277Z,3.20
2022-08-05T09:17:15.938Z,3.90
2022-08-05T09:20:04.893Z,3.90
2022-08-05T09:23:07.938Z,3.60
2022-08-05T09:26:03.543Z,3.90
2022-08-05T09:28:32.032Z,3.90
2022-08-05T09:31:22.408Z,3.60
2022-08-05T09:34:02.585Z,3.60
2022-08-05T09:36:54.989Z,2.70
2022-08-05T09:39:27.792Z,3.60
2022-08-05T09:42:11.390Z,3.30
2022-08-05T09:44:50.661Z,3.50
2022-08-05T09:47:21.919Z,3.10
2022-08-05T09:50:00.576Z,2.70
2022-08-05T09:52:32.068Z,3.00
2022-08-05T09:55:55.232Z,2.60
2022-08-05T09:57:54.752Z,3.20
2022-08-05T10:00:32.079Z,2.90
2022-08-05T10:03:09.915Z,3.00
2022-08-05T10:05:38.374Z,2.90
2022-08-05T10:08:34.677Z,2.90
2022-08-05T10:10:55.017Z,2.90
2022-08-05T10:13:45.779Z,3.40
2022-08-05T10:17:01.146Z,3.40
2022-08-05T10:20:02.714Z,3.00
2022-08-05T10:22:30.103Z,3.20
2022-08-05T10:25:02.506Z,3.70
2022-08-05T10:28:09.689Z,3.50
2022-08-05T10:31:19.922Z,3.10
2022-08-05T10:33:06.796Z,3.70
2022-08-05T10:35:40.632Z,2.80
2022-08-05T10:38:14.098Z,3.90
2022-08-05T10:40:57.828Z,3.30
2022-08-05T10:43:59.323Z,3.20
2022-08-05T10:46:54.376Z,3.40
2022-08-05T10:49:33.510Z,3.10
2022-08-05T10:52:49.537Z,3.80
2022-08-05T10:55:19.250Z,3.40
2022-08-05T10:57:46.743Z,4.10
2022-08-05T11:00:23.133Z,3.40
2022-08-05T11:03:23.461Z,3.60
2022-08-05T11:06:15.603Z,3.50
2022-08-05T11:09:18.611Z,3.70
2022-08-05T11:11:54.835Z,3.50
2022-08-05T11:17:59.100Z,3.80
2022-08-05T11:20:46.473Z,3.50
2022-08-05T11:23:33.657Z,3.40
2022-08-05T11:26:28.049Z,3.90
2022-08-05T11:28:58.717Z,3.70
2022-08-05T11:31:58.122Z,3.50
2022-08-05T11:34:51.350Z,4.00
2022-08-05T11:38:26.664Z,3.60
2022-08-05T11:41:34.591Z,4.10
2022-08-05T11:44:04.681Z,3.40
2022-08-05T11:46:58.188Z,3.60
2022-08-05T11:49:26.076Z,3.60
2022-08-05T11:51:53.927Z,3.60
2022-08-05T11:54:38.340Z,4.70
2022-08-05T11:57:24.966Z,3.70
2022-08-05T11:59:57.376Z,4.00
2022-08-05T12:02:30.190Z,3.90
2022-08-05T12:05:07.360Z,3.70
2022-08-05T12:08:08.027Z,4.10
2022-08-05T12:10:43.336Z,4.10
2022-08-05T12:13:17.431Z,3.50
2022-08-05T12:15:56.142Z,3.90
2022-08-05T12:18:40.591Z,4.20
2022-08-05T12:21:12.487Z,4.00
2022-08-05T12:23:42.914Z,4.20
2022-08-05T12:26:10.893Z,4.40
2022-08-05T12:28:38.698Z,6.00
2022-08-05T12:31:06.213Z,4.80
2022-08-05T12:33:36.430Z,4.70
2022-08-05T12:36:08.366Z,4.90
2022-08-05T12:38:40.401Z,4.80
2022-08-05T12:41:13.368Z,5.00
2022-08-05T12:44:00.299Z,4.80
2022-08-05T12:46:31.423Z,5.10
2022-08-05T12:49:08.412Z,5.60
2022-08-05T12:52:12.569Z,5.60
2022-08-05T12:54:41.193Z,5.50
2022-08-05T12:57:12.962Z,6.10
2022-08-05T13:01:58.099Z,5.30
2022-08-05T13:02:47.441Z,5.60
2022-08-05T13:05:24.702Z,5.60
2022-08-05T13:08:04.856Z,6.80
2022-08-05T13:10:50.382Z,6.40
2022-08-05T13:14:05.201Z,6.30
2022-08-05T13:16:15.350Z,5.90
2022-08-05T13:19:01.486Z,6.60
2022-08-05T13:21:38.046Z,6.30
2022-08-05T13:24:36.559Z,6.90
2022-08-05T13:27:04.688Z,6.20
2022-08-05T13:29:37.493Z,5.50
2022-08-05T13:32:05.757Z,6.20
2022-08-05T13:34:33.761Z,5.90
2022-08-05T13:37:05.584Z,5.60
2022-08-05T13:40:16.257Z,5.80
2022-08-05T13:42:23.540Z,6.00
2022-08-05T13:44:54.510Z,5.70
2022-08-05T13:47:36.040Z,6.30
2022-08-05T13:50:16.487Z,5.90
2022-08-05T13:52:44.399Z,5.80
2022-08-05T13:55:41.956Z,5.60
2022-08-05T13:58:08.059Z,6.10
2022-08-05T14:00:38.647Z,5.90
2022-08-05T14:03:11.719Z,5.60
2022-08-05T14:06:24.832Z,6.10
2022-08-05T14:08:28.019Z,5.60
2022-08-05T14:11:19.822Z,6.20
2022-08-05T14:13:48.216Z,6.10
2022-08-05T14:16:16.823Z,5.70
2022-08-05T14:18:44.805Z,6.20
2022-08-05T14:22:07.945Z,6.30
2022-08-05T14:24:00.002Z,5.00
2022-08-05T14:26:36.879Z,5.40
2022-08-05T14:29:06.453Z,6.10
2022-08-05T14:31:54.494Z,5.70
2022-08-05T14:34:35.222Z,5.60
2022-08-05T14:37:05.190Z,6.70
2022-08-05T14:39:49.452Z,6.00
2022-08-05T14:42:20.765Z,5.80
2022-08-05T14:44:49.594Z,7.30
2022-08-05T14:48:03.602Z,5.90
2022-08-05T14:50:17.181Z,6.90
2022-08-05T14:52:53.614Z,6.00
2022-08-05T14:55:38.356Z,6.50
2022-08-05T14:58:10.827Z,7.00
2022-08-05T15:00:59.104Z,6.70
2022-08-05T15:03:33.582Z,7.10
2022-08-05T15:06:07.999Z,7.00
2022-08-05T15:08:57.914Z,7.30
2022-08-05T15:11:51.844Z,12.80
2022-08-05T15:14:33.367Z,10.60
2022-08-05T15:17:05.287Z,8.10
2022-08-05T15:19:37.638Z,8.70
2022-08-05T15:22:08.656Z,8.20
2022-08-05T15:24:36.563Z,11.40
2022-08-05T15:27:09.168Z,18.70
2022-08-05T15:29:42.134Z,9.90
2022-08-05T15:32:09.911Z,7.10
2022-08-05T15:34:37.461Z,11.50
2022-08-05T15:37:06.821Z,8.80
2022-08-05T15:41:00.503Z,7.80
2022-08-05T15:42:55.592Z,8.50
2022-08-05T15:45:18.684Z,7.50
2022-08-05T15:47:50.626Z,8.30
2022-08-05T15:50:21.907Z,7.70
2022-08-05T15:52:55.292Z,7.00
2022-08-05T15:55:24.561Z,7.90
2022-08-05T15:57:52.690Z,7.10
2022-08-05T16:00:25.940Z,8.80
2022-08-05T16:03:00.421Z,7.20
2022-08-05T16:05:28.629Z,8.20
2022-08-05T16:07:57.217Z,7.60
2022-08-05T16:10:25.566Z,7.10
2022-08-05T16:12:55.974Z,7.60
2022-08-05T16:15:23.999Z,8.20
2022-08-05T16:17:59.843Z,7.30
2022-08-05T16:20:27.992Z,7.60
2022-08-05T16:22:55.813Z,7.50
2022-08-05T16:25:32.235Z,7.60
2022-08-05T16:28:09.744Z,7.30
2022-08-05T16:30:38.060Z,8.50
2022-08-05T16:33:06.354Z,6.60
2022-08-05T16:35:41.954Z,7.50
2022-08-05T16:38:24.095Z,8.00
2022-08-05T16:41:00.043Z,6.90
2022-08-05T16:43:34.108Z,7.30
2022-08-05T16:46:12.891Z,7.90
2022-08-05T16:48:52.143Z,6.40
2022-08-05T16:51:20.626Z,7.10
2022-08-05T16:54:02.907Z,6.40
2022-08-05T16:56:35.068Z,7.00
2022-08-05T16:59:10.760Z,7.00
2022-08-05T17:01:53.506Z,6.50
2022-08-05T17:04:27.759Z,6.10
2022-08-05T17:07:03.534Z,7.40
2022-08-05T17:09:58.351Z,6.40
2022-08-05T17:12:51.514Z,6.50
2022-08-05T17:15:15.698Z,5.90
2022-08-05T17:17:55.257Z,5.20
2022-08-05T17:20:23.082Z,5.90
2022-08-05T17:22:55.688Z,5.90
2022-08-05T17:25:39.499Z,5.60
2022-08-05T17:28:09.819Z,5.50
2022-08-05T17:30:50.217Z,5.50
2022-08-05T17:33:20.393Z,5.80
2022-08-05T17:36:07.947Z,4.80
2022-08-05T17:38:35.543Z,5.30
2022-08-05T17:41:03.084Z,4.90
2022-08-05T17:43:47.304Z,4.10
2022-08-05T17:46:20.181Z,4.90
2022-08-05T17:48:48.858Z,4.70
2022-08-05T17:51:21.761Z,5.60
2022-08-05T17:53:50.915Z,4.70
2022-08-05T17:56:22.780Z,4.60
2022-08-05T17:58:51.157Z,5.10
2022-08-05T18:01:20.061Z,4.60
2022-08-05T18:03:58.347Z,4.80
2022-08-05T18:06:31.489Z,4.10
2022-08-05T18:08:59.937Z,4.70
2022-08-05T18:11:33.468Z,4.40
2022-08-05T18:14:13.482Z,4.60
2022-08-05T18:16:51.820Z,5.70
2022-08-05T18:19:22.638Z,5.00
2022-08-05T18:22:09.702Z,4.60
2022-08-05T18:24:39.508Z,6.10
2022-08-05T18:27:16.596Z,8.70
2022-08-05T18:29:53.666Z,4.00
2022-08-05T18:32:28.214Z,4.20
2022-08-05T18:34:57.799Z,4.50
2022-08-05T18:37:34.803Z,4.20
2022-08-05T18:41:50.073Z,4.30
2022-08-05T18:42:58.485Z,4.20
2022-08-05T18:45:26.814Z,4.90
2022-08-05T18:48:11.296Z,4.00
2022-08-05T18:50:55.565Z,4.30
2022-08-05T18:53:29.390Z,4.20
2022-08-05T18:56:02.344Z,4.20
2022-08-05T18:58:39.906Z,4.40
2022-08-05T19:01:10.609Z,4.50
2022-08-05T19:03:53.036Z,5.30
2022-08-05T19:06:34.367Z,5.40
2022-08-05T19:09:11.547Z,5.90
2022-08-05T19:11:59.916Z,6.00
2022-08-05T19:14:37.893Z,9.50
2022-08-05T19:17:14.244Z,5.50
2022-08-05T19:19:46.869Z,5.90
2022-08-05T19:22:17.052Z,5.70
2022-08-05T19:24:56.027Z,5.80
2022-08-05T19:27:27.954Z,6.10
2022-08-05T19:29:58.560Z,5.80
2022-08-05T19:32:27.790Z,5.50
2022-08-05T19:34:58.919Z,5.00
2022-08-05T19:37:47.413Z,5.60
2022-08-05T19:40:24.200Z,7.50
2022-08-05T19:43:00.952Z,6.50
2022-08-05T19:45:36.740Z,4.30
2022-08-05T19:48:06.204Z,4.70
2022-08-05T19:50:35.058Z,4.50
2022-08-05T19:53:10.359Z,4.50
2022-08-05T19:56:15.439Z,5.20
2022-08-05T19:58:28.391Z,5.70
2022-08-05T20:00:56.862Z,4.50
2022-08-05T20:03:26.118Z,4.90
2022-08-05T20:05:56.600Z,5.90
2022-08-05T20:08:25.363Z,4.90
2022-08-05T20:10:53.503Z,5.00
2022-08-05T20:13:29.988Z,5.10
2022-08-05T20:16:09.994Z,5.10
2022-08-05T20:18:38.347Z,5.30
2022-08-05T20:21:07.104Z,4.90
2022-08-05T20:23:39.293Z,5.10
2022-08-05T20:26:19.883Z,4.70
2022-08-05T20:28:50.375Z,4.20
2022-08-05T20:31:36.935Z,4.40
2022-08-05T20:34:11.576Z,5.50
2022-08-05T20:36:43.223Z,5.10
2022-08-05T20:39:16.131Z,4.90
2022-08-05T20:41:46.569Z,5.20
2022-08-05T20:44:29.707Z,5.70
2022-08-05T20:47:00.758Z,4.70
2022-08-05T20:49:28.897Z,5.00
2022-08-05T20:51:57.835Z,4.60
2022-08-05T20:54:55.028Z,5.10
2022-08-05T20:57:42.145Z,4.60
2022-08-05T21:00:20.320Z,4.50
2022-08-05T21:02:56.978Z,4.40
2022-08-05T21:05:24.616Z,4.70
2022-08-05T21:07:52.530Z,5.10
2022-08-05T21:10:21.591Z,4.40
2022-08-05T21:13:08.935Z,4.90
2022-08-05T21:15:37.387Z,4.50
2022-08-05T21:18:04.908Z,4.90
2022-08-05T21:20:32.889Z,4.90
2022-08-05T21:23:01.257Z,5.10
2022-08-05T21:25:34.041Z,5.50
2022-08-05T21:28:03.008Z,5.20
2022-08-05T21:30:31.763Z,6.40
2022-08-05T21:33:01.726Z,6.30
2022-08-05T21:35:55.779Z,6.20
2022-08-05T21:38:19.039Z,6.70
2022-08-05T21:40:46.724Z,6.80
2022-08-05T21:43:24.187Z,8.10
2022-08-05T21:45:57.415Z,5.80
2022-08-05T21:48:28.735Z,6.90
2022-08-05T21:50:56.441Z,6.70
2022-08-05T21:53:27.623Z,5.80
2022-08-05T21:56:05.649Z,6.50
2022-08-05T21:58:42.316Z,6.00
2022-08-05T22:01:24.748Z,7.80
2022-08-05T22:03:53.758Z,14.10
2022-08-05T22:06:35.218Z,8.50
2022-08-05T22:09:13.971Z,7.10
2022-08-05T22:11:47.108Z,7.70
2022-08-05T22:14:32.696Z,8.90
2022-08-05T22:17:05.388Z,7.40
2022-08-05T22:19:57.265Z,6.90
2022-08-05T22:22:28.049Z,6.90
2022-08-05T22:25:17.682Z,7.20
2022-08-05T22:28:08.942Z,6.80
2022-08-05T22:30:55.834Z,7.50
2022-08-05T22:33:57.195Z,7.40
2022-08-05T22:36:14.265Z,8.50
2022-08-05T22:38:48.163Z,9.60
2022-08-05T22:42:05.364Z,7.50
2022-08-05T22:44:07.786Z,9.10
2022-08-05T22:46:39.443Z,8.40
2022-08-05T22:49:12.096Z,9.30
2022-08-05T22:52:05.130Z,11.70
2022-08-05T22:54:28.275Z,9.10
2022-08-05T22:56:56.087Z,8.00
2022-08-05T22:59:46.387Z,9.20
2022-08-05T23:02:13.524Z,8.10
2022-08-05T23:04:51.531Z,8.20
2022-08-05T23:07:21.882Z,9.10
2022-08-05T23:09:58.428Z,10.00
2022-08-05T23:12:33.346Z,9.00
2022-08-05T23:15:08.925Z,9.40
2022-08-05T23:17:37.959Z,10.20
2022-08-05T23:20:25.119Z,10.60
2022-08-05T23:22:55.855Z,14.00
2022-08-05T23:25:53.250Z,8.90
2022-08-05T23:28:12.296Z,11.00
2022-08-05T23:30:43.610Z,10.00
2022-08-05T23:33:16.513Z,6.90
2022-08-05T23:35:56.178Z,8.20
2022-08-05T23:38:25.934Z,13.60
2022-08-05T23:40:53.776Z,9.70
2022-08-05T23:43:25.731Z,13.10
2022-08-05T23:46:19.771Z,12.50
2022-08-05T23:49:01.076Z,20.80
2022-08-05T23:51:53.576Z,10.30
2022-08-05T23:54:30.018Z,10.50
2022-08-05T23:57:03.871Z,9.30
2022-08-05T23:59:37.561Z,13.50
